sensor_id;sensor_type;location;lat;lon;timestamp;P1;durP1;ratioP1;P2;durP2;ratioP2
56830;SDS011;42713;42.676;23.352;2023-11-21T00:01:49;24.13;;;9.70;;
56830;SDS011;42713;42.676;23.352;2023-11-21T00:04:14;28.52;;;10.45;;
56830;SDS011;42713;42.676;23.352;2023-11-21T00:06:40;20.40;;;8.73;;
56830;SDS011;42713;42.676;23.352;2023-11-21T00:09:06;23.60;;;9.65;;
56830;SDS011;42713;42.676;23.352;2023-11-21T00:11:33;23.95;;;9.68;;
56830;SDS011;42713;42.676;23.352;2023-11-21T00:13:59;19.70;;;9.07;;
56830;SDS011;42713;42.676;23.352;2023-11-21T00:16:24;21.98;;;8.63;;
56830;SDS011;42713;42.676;23.352;2023-11-21T00:18:50;19.80;;;8.18;;
56830;SDS011;42713;42.676;23.352;2023-11-21T00:21:16;17.33;;;7.93;;
56830;SDS011;42713;42.676;23.352;2023-11-21T00:23:42;14.88;;;6.55;;
56830;SDS011;42713;42.676;23.352;2023-11-21T00:26:07;13.65;;;6.20;;
56830;SDS011;42713;42.676;23.352;2023-11-21T00:28:33;11.65;;;5.40;;
56830;SDS011;42713;42.676;23.352;2023-11-21T00:30:58;16.10;;;5.47;;
56830;SDS011;42713;42.676;23.352;2023-11-21T00:33:24;13.70;;;6.22;;
56830;SDS011;42713;42.676;23.352;2023-11-21T00:35:50;13.57;;;6.20;;
56830;SDS011;42713;42.676;23.352;2023-11-21T00:38:16;16.77;;;6.47;;
56830;SDS011;42713;42.676;23.352;2023-11-21T00:40:47;18.48;;;8.55;;
56830;SDS011;42713;42.676;23.352;2023-11-21T00:43:13;23.60;;;9.68;;
56830;SDS011;42713;42.676;23.352;2023-11-21T00:45:38;19.85;;;9.20;;
56830;SDS011;42713;42.676;23.352;2023-11-21T00:48:06;30.38;;;14.43;;
56830;SDS011;42713;42.676;23.352;2023-11-21T00:50:33;32.20;;;14.82;;
56830;SDS011;42713;42.676;23.352;2023-11-21T00:52:59;28.77;;;12.43;;
56830;SDS011;42713;42.676;23.352;2023-11-21T00:55:24;33.25;;;15.82;;
56830;SDS011;42713;42.676;23.352;2023-11-21T00:57:51;29.92;;;12.68;;
56830;SDS011;42713;42.676;23.352;2023-11-21T01:00:16;41.00;;;18.85;;
56830;SDS011;42713;42.676;23.352;2023-11-21T01:02:46;27.75;;;13.88;;
56830;SDS011;42713;42.676;23.352;2023-11-21T01:05:12;47.75;;;22.50;;
56830;SDS011;42713;42.676;23.352;2023-11-21T01:07:38;41.35;;;19.55;;
56830;SDS011;42713;42.676;23.352;2023-11-21T01:10:03;30.33;;;13.48;;
56830;SDS011;42713;42.676;23.352;2023-11-21T01:12:36;29.23;;;13.80;;
56830;SDS011;42713;42.676;23.352;2023-11-21T01:15:03;40.63;;;17.92;;
56830;SDS011;42713;42.676;23.352;2023-11-21T01:17:37;41.92;;;18.20;;
56830;SDS011;42713;42.676;23.352;2023-11-21T01:20:03;35.72;;;17.80;;
56830;SDS011;42713;42.676;23.352;2023-11-21T01:22:35;37.50;;;16.23;;
56830;SDS011;42713;42.676;23.352;2023-11-21T01:25:01;34.05;;;16.00;;
56830;SDS011;42713;42.676;23.352;2023-11-21T01:27:29;38.42;;;16.88;;
56830;SDS011;42713;42.676;23.352;2023-11-21T01:29:55;34.80;;;16.40;;
56830;SDS011;42713;42.676;23.352;2023-11-21T01:32:20;28.83;;;14.88;;
56830;SDS011;42713;42.676;23.352;2023-11-21T01:34:47;36.72;;;15.43;;
56830;SDS011;42713;42.676;23.352;2023-11-21T01:37:13;31.80;;;15.13;;
56830;SDS011;42713;42.676;23.352;2023-11-21T01:39:38;39.15;;;17.70;;
56830;SDS011;42713;42.676;23.352;2023-11-21T01:42:05;37.15;;;17.30;;
56830;SDS011;42713;42.676;23.352;2023-11-21T01:44:31;39.08;;;18.85;;
56830;SDS011;42713;42.676;23.352;2023-11-21T01:46:56;41.25;;;17.20;;
56830;SDS011;42713;42.676;23.352;2023-11-21T01:49:22;35.05;;;18.63;;
56830;SDS011;42713;42.676;23.352;2023-11-21T01:51:48;40.13;;;19.02;;
56830;SDS011;42713;42.676;23.352;2023-11-21T01:54:16;42.85;;;19.63;;
56830;SDS011;42713;42.676;23.352;2023-11-21T01:56:43;40.60;;;18.67;;
56830;SDS011;42713;42.676;23.352;2023-11-21T01:59:13;43.85;;;20.63;;
56830;SDS011;42713;42.676;23.352;2023-11-21T02:01:42;41.28;;;18.63;;
56830;SDS011;42713;42.676;23.352;2023-11-21T02:04:09;35.15;;;17.65;;
56830;SDS011;42713;42.676;23.352;2023-11-21T02:06:34;40.50;;;19.60;;
56830;SDS011;42713;42.676;23.352;2023-11-21T02:09:00;40.22;;;19.30;;
56830;SDS011;42713;42.676;23.352;2023-11-21T02:11:26;41.35;;;19.20;;
56830;SDS011;42713;42.676;23.352;2023-11-21T02:13:53;36.33;;;18.00;;
56830;SDS011;42713;42.676;23.352;2023-11-21T02:16:19;43.75;;;18.90;;
56830;SDS011;42713;42.676;23.352;2023-11-21T02:18:46;38.38;;;17.42;;
56830;SDS011;42713;42.676;23.352;2023-11-21T02:21:13;39.75;;;17.92;;
56830;SDS011;42713;42.676;23.352;2023-11-21T02:23:39;40.10;;;18.92;;
56830;SDS011;42713;42.676;23.352;2023-11-21T02:26:09;35.92;;;17.80;;
56830;SDS011;42713;42.676;23.352;2023-11-21T02:28:35;38.38;;;18.73;;
56830;SDS011;42713;42.676;23.352;2023-11-21T02:31:05;37.97;;;18.77;;
56830;SDS011;42713;42.676;23.352;2023-11-21T02:33:32;37.67;;;18.52;;
56830;SDS011;42713;42.676;23.352;2023-11-21T02:35:59;45.20;;;18.73;;
56830;SDS011;42713;42.676;23.352;2023-11-21T02:38:25;40.30;;;17.85;;
56830;SDS011;42713;42.676;23.352;2023-11-21T02:40:51;40.90;;;16.88;;
56830;SDS011;42713;42.676;23.352;2023-11-21T02:43:16;33.97;;;16.13;;
56830;SDS011;42713;42.676;23.352;2023-11-21T02:45:42;45.00;;;17.35;;
56830;SDS011;42713;42.676;23.352;2023-11-21T02:48:07;36.00;;;16.33;;
56830;SDS011;42713;42.676;23.352;2023-11-21T02:50:35;33.90;;;16.60;;
56830;SDS011;42713;42.676;23.352;2023-11-21T02:53:04;35.33;;;16.83;;
56830;SDS011;42713;42.676;23.352;2023-11-21T02:55:31;32.25;;;15.07;;
56830;SDS011;42713;42.676;23.352;2023-11-21T02:57:59;33.95;;;15.00;;
56830;SDS011;42713;42.676;23.352;2023-11-21T03:00:25;33.40;;;16.88;;
56830;SDS011;42713;42.676;23.352;2023-11-21T03:02:50;37.03;;;15.88;;
56830;SDS011;42713;42.676;23.352;2023-11-21T03:05:16;37.78;;;17.50;;
56830;SDS011;42713;42.676;23.352;2023-11-21T03:07:41;32.20;;;16.10;;
56830;SDS011;42713;42.676;23.352;2023-11-21T03:10:08;40.50;;;17.08;;
56830;SDS011;42713;42.676;23.352;2023-11-21T03:12:34;32.85;;;16.23;;
56830;SDS011;42713;42.676;23.352;2023-11-21T03:14:59;32.28;;;16.58;;
56830;SDS011;42713;42.676;23.352;2023-11-21T03:17:27;34.88;;;16.48;;
56830;SDS011;42713;42.676;23.352;2023-11-21T03:19:52;42.55;;;18.13;;
56830;SDS011;42713;42.676;23.352;2023-11-21T03:22:18;36.83;;;16.58;;
56830;SDS011;42713;42.676;23.352;2023-11-21T03:24:44;37.33;;;16.77;;
56830;SDS011;42713;42.676;23.352;2023-11-21T03:27:09;33.53;;;16.27;;
56830;SDS011;42713;42.676;23.352;2023-11-21T03:29:35;36.92;;;16.98;;
56830;SDS011;42713;42.676;23.352;2023-11-21T03:32:00;35.38;;;17.55;;
56830;SDS011;42713;42.676;23.352;2023-11-21T03:34:27;38.70;;;17.25;;
56830;SDS011;42713;42.676;23.352;2023-11-21T03:36:53;41.33;;;17.33;;
56830;SDS011;42713;42.676;23.352;2023-11-21T03:39:22;34.53;;;16.85;;
56830;SDS011;42713;42.676;23.352;2023-11-21T03:41:48;40.17;;;17.13;;
56830;SDS011;42713;42.676;23.352;2023-11-21T03:44:14;39.05;;;17.50;;
56830;SDS011;42713;42.676;23.352;2023-11-21T03:46:39;37.80;;;16.75;;
56830;SDS011;42713;42.676;23.352;2023-11-21T03:49:05;43.13;;;18.52;;
56830;SDS011;42713;42.676;23.352;2023-11-21T03:51:30;38.47;;;17.65;;
56830;SDS011;42713;42.676;23.352;2023-11-21T03:53:59;38.42;;;18.15;;
56830;SDS011;42713;42.676;23.352;2023-11-21T03:56:24;37.30;;;16.42;;
56830;SDS011;42713;42.676;23.352;2023-11-21T03:58:50;36.17;;;17.10;;
56830;SDS011;42713;42.676;23.352;2023-11-21T04:01:19;36.58;;;18.02;;
56830;SDS011;42713;42.676;23.352;2023-11-21T04:03:48;41.47;;;17.83;;
56830;SDS011;42713;42.676;23.352;2023-11-21T04:06:14;38.70;;;17.27;;
56830;SDS011;42713;42.676;23.352;2023-11-21T04:08:42;35.08;;;17.05;;
56830;SDS011;42713;42.676;23.352;2023-11-21T04:11:09;35.88;;;15.88;;
56830;SDS011;42713;42.676;23.352;2023-11-21T04:13:36;39.17;;;16.20;;
56830;SDS011;42713;42.676;23.352;2023-11-21T04:16:03;35.25;;;16.42;;
56830;SDS011;42713;42.676;23.352;2023-11-21T04:18:29;37.05;;;17.63;;
56830;SDS011;42713;42.676;23.352;2023-11-21T04:20:55;35.08;;;17.08;;
56830;SDS011;42713;42.676;23.352;2023-11-21T04:23:21;32.35;;;15.82;;
56830;SDS011;42713;42.676;23.352;2023-11-21T04:25:46;31.02;;;15.18;;
56830;SDS011;42713;42.676;23.352;2023-11-21T04:28:12;31.40;;;14.93;;
56830;SDS011;42713;42.676;23.352;2023-11-21T04:30:38;33.63;;;16.10;;
56830;SDS011;42713;42.676;23.352;2023-11-21T04:33:04;36.45;;;16.05;;
56830;SDS011;42713;42.676;23.352;2023-11-21T04:35:30;28.60;;;15.35;;
56830;SDS011;42713;42.676;23.352;2023-11-21T04:37:55;34.72;;;15.43;;
56830;SDS011;42713;42.676;23.352;2023-11-21T04:40:22;28.23;;;14.40;;
56830;SDS011;42713;42.676;23.352;2023-11-21T04:42:47;39.42;;;15.82;;
56830;SDS011;42713;42.676;23.352;2023-11-21T04:45:13;31.80;;;14.98;;
56830;SDS011;42713;42.676;23.352;2023-11-21T04:47:38;31.63;;;14.38;;
56830;SDS011;42713;42.676;23.352;2023-11-21T04:50:04;30.13;;;14.25;;
56830;SDS011;42713;42.676;23.352;2023-11-21T04:52:31;30.40;;;15.60;;
56830;SDS011;42713;42.676;23.352;2023-11-21T04:54:58;36.38;;;15.25;;
56830;SDS011;42713;42.676;23.352;2023-11-21T04:57:26;28.95;;;14.40;;
56830;SDS011;42713;42.676;23.352;2023-11-21T04:59:56;35.83;;;14.90;;
56830;SDS011;42713;42.676;23.352;2023-11-21T05:02:22;29.17;;;15.70;;
56830;SDS011;42713;42.676;23.352;2023-11-21T05:04:50;34.83;;;14.77;;
56830;SDS011;42713;42.676;23.352;2023-11-21T05:07:16;31.88;;;15.20;;
56830;SDS011;42713;42.676;23.352;2023-11-21T05:09:44;30.20;;;14.57;;
56830;SDS011;42713;42.676;23.352;2023-11-21T05:12:16;33.88;;;14.88;;
56830;SDS011;42713;42.676;23.352;2023-11-21T05:14:41;32.88;;;14.43;;
56830;SDS011;42713;42.676;23.352;2023-11-21T05:17:07;31.58;;;14.75;;
56830;SDS011;42713;42.676;23.352;2023-11-21T05:19:33;33.88;;;14.38;;
56830;SDS011;42713;42.676;23.352;2023-11-21T05:22:01;33.38;;;16.00;;
56830;SDS011;42713;42.676;23.352;2023-11-21T05:24:27;32.72;;;14.82;;
56830;SDS011;42713;42.676;23.352;2023-11-21T05:26:53;27.50;;;14.65;;
56830;SDS011;42713;42.676;23.352;2023-11-21T05:29:19;32.20;;;14.93;;
56830;SDS011;42713;42.676;23.352;2023-11-21T05:31:44;30.75;;;14.45;;
56830;SDS011;42713;42.676;23.352;2023-11-21T05:34:12;31.42;;;15.73;;
56830;SDS011;42713;42.676;23.352;2023-11-21T05:36:37;29.77;;;14.63;;
56830;SDS011;42713;42.676;23.352;2023-11-21T05:39:03;30.83;;;13.57;;
56830;SDS011;42713;42.676;23.352;2023-11-21T05:41:29;29.40;;;14.10;;
56830;SDS011;42713;42.676;23.352;2023-11-21T05:43:55;26.13;;;14.65;;
56830;SDS011;42713;42.676;23.352;2023-11-21T05:46:20;28.40;;;15.45;;
56830;SDS011;42713;42.676;23.352;2023-11-21T05:48:47;33.55;;;15.98;;
56830;SDS011;42713;42.676;23.352;2023-11-21T05:51:15;36.35;;;16.10;;
56830;SDS011;42713;42.676;23.352;2023-11-21T05:53:42;32.85;;;16.05;;
56830;SDS011;42713;42.676;23.352;2023-11-21T05:56:08;41.60;;;16.27;;
56830;SDS011;42713;42.676;23.352;2023-11-21T05:58:33;32.45;;;14.93;;
56830;SDS011;42713;42.676;23.352;2023-11-21T06:00:59;32.10;;;15.10;;
56830;SDS011;42713;42.676;23.352;2023-11-21T06:03:24;35.10;;;17.23;;
56830;SDS011;42713;42.676;23.352;2023-11-21T06:05:50;36.05;;;17.08;;
56830;SDS011;42713;42.676;23.352;2023-11-21T06:08:15;36.78;;;17.20;;
56830;SDS011;42713;42.676;23.352;2023-11-21T06:10:42;37.25;;;17.08;;
56830;SDS011;42713;42.676;23.352;2023-11-21T06:13:09;44.38;;;17.65;;
56830;SDS011;42713;42.676;23.352;2023-11-21T06:15:35;34.05;;;15.60;;
56830;SDS011;42713;42.676;23.352;2023-11-21T06:18:05;37.15;;;17.33;;
56830;SDS011;42713;42.676;23.352;2023-11-21T06:20:36;31.67;;;15.13;;
56830;SDS011;42713;42.676;23.352;2023-11-21T06:23:02;31.27;;;14.77;;
56830;SDS011;42713;42.676;23.352;2023-11-21T06:25:28;38.05;;;16.98;;
56830;SDS011;42713;42.676;23.352;2023-11-21T06:27:54;32.63;;;16.48;;
56830;SDS011;42713;42.676;23.352;2023-11-21T06:30:21;41.20;;;15.95;;
56830;SDS011;42713;42.676;23.352;2023-11-21T06:32:48;33.25;;;15.82;;
56830;SDS011;42713;42.676;23.352;2023-11-21T06:35:15;32.95;;;16.65;;
56830;SDS011;42713;42.676;23.352;2023-11-21T06:37:40;31.80;;;15.65;;
56830;SDS011;42713;42.676;23.352;2023-11-21T06:42:51;34.47;;;16.63;;
56830;SDS011;42713;42.676;23.352;2023-11-21T06:48:15;34.55;;;16.85;;
56830;SDS011;42713;42.676;23.352;2023-11-21T06:50:49;37.58;;;17.83;;
56830;SDS011;42713;42.676;23.352;2023-11-21T06:53:31;38.35;;;17.58;;
56830;SDS011;42713;42.676;23.352;2023-11-21T07:00:36;34.55;;;17.20;;
56830;SDS011;42713;42.676;23.352;2023-11-21T07:10:01;25.02;;;14.95;;
56830;SDS011;42713;42.676;23.352;2023-11-21T07:12:30;31.73;;;14.68;;
56830;SDS011;42713;42.676;23.352;2023-11-21T07:14:59;28.38;;;13.27;;
56830;SDS011;42713;42.676;23.352;2023-11-21T07:24:02;21.25;;;10.07;;
56830;SDS011;42713;42.676;23.352;2023-11-21T07:38:26;22.25;;;10.45;;
56830;SDS011;42713;42.676;23.352;2023-11-21T07:42:06;24.73;;;11.30;;
56830;SDS011;42713;42.676;23.352;2023-11-21T07:52:31;23.63;;;11.85;;
56830;SDS011;42713;42.676;23.352;2023-11-21T07:55:31;24.63;;;12.10;;
56830;SDS011;42713;42.676;23.352;2023-11-21T07:58:13;30.13;;;12.98;;
56830;SDS011;42713;42.676;23.352;2023-11-21T08:00:42;26.02;;;11.45;;
56830;SDS011;42713;42.676;23.352;2023-11-21T08:10:19;23.10;;;11.75;;
56830;SDS011;42713;42.676;23.352;2023-11-21T08:17:18;31.00;;;12.68;;
56830;SDS011;42713;42.676;23.352;2023-11-21T08:20:03;25.40;;;12.75;;
56830;SDS011;42713;42.676;23.352;2023-11-21T08:31:00;26.05;;;11.52;;
56830;SDS011;42713;42.676;23.352;2023-11-21T08:33:47;27.45;;;11.85;;
56830;SDS011;42713;42.676;23.352;2023-11-21T08:37:23;23.20;;;10.70;;
56830;SDS011;42713;42.676;23.352;2023-11-21T08:39:49;21.27;;;11.10;;
56830;SDS011;42713;42.676;23.352;2023-11-21T08:42:14;22.98;;;11.40;;
56830;SDS011;42713;42.676;23.352;2023-11-21T08:44:40;31.00;;;13.27;;
56830;SDS011;42713;42.676;23.352;2023-11-21T08:47:06;28.98;;;13.65;;
56830;SDS011;42713;42.676;23.352;2023-11-21T08:49:32;39.08;;;15.40;;
56830;SDS011;42713;42.676;23.352;2023-11-21T08:51:58;29.13;;;14.18;;
56830;SDS011;42713;42.676;23.352;2023-11-21T08:54:26;35.17;;;15.88;;
56830;SDS011;42713;42.676;23.352;2023-11-21T08:56:52;30.80;;;15.02;;
56830;SDS011;42713;42.676;23.352;2023-11-21T08:59:26;31.27;;;14.50;;
56830;SDS011;42713;42.676;23.352;2023-11-21T09:01:58;29.15;;;15.20;;
56830;SDS011;42713;42.676;23.352;2023-11-21T09:04:41;28.42;;;15.40;;
56830;SDS011;42713;42.676;23.352;2023-11-21T09:07:20;28.80;;;14.63;;
56830;SDS011;42713;42.676;23.352;2023-11-21T09:10:20;38.63;;;16.88;;
56830;SDS011;42713;42.676;23.352;2023-11-21T09:12:45;33.53;;;16.27;;
56830;SDS011;42713;42.676;23.352;2023-11-21T09:15:11;41.53;;;20.15;;
56830;SDS011;42713;42.676;23.352;2023-11-21T09:17:37;39.30;;;21.33;;
56830;SDS011;42713;42.676;23.352;2023-11-21T09:20:02;40.50;;;21.02;;
56830;SDS011;42713;42.676;23.352;2023-11-21T09:22:30;44.33;;;21.90;;
56830;SDS011;42713;42.676;23.352;2023-11-21T09:24:59;44.50;;;23.58;;
56830;SDS011;42713;42.676;23.352;2023-11-21T09:27:37;40.05;;;21.50;;
56830;SDS011;42713;42.676;23.352;2023-11-21T09:30:13;48.20;;;25.83;;
56830;SDS011;42713;42.676;23.352;2023-11-21T09:32:39;55.60;;;27.80;;
56830;SDS011;42713;42.676;23.352;2023-11-21T09:35:05;54.13;;;28.88;;
56830;SDS011;42713;42.676;23.352;2023-11-21T09:37:33;51.47;;;28.27;;
56830;SDS011;42713;42.676;23.352;2023-11-21T09:39:58;43.83;;;26.77;;
56830;SDS011;42713;42.676;23.352;2023-11-21T09:42:29;45.17;;;25.48;;
56830;SDS011;42713;42.676;23.352;2023-11-21T09:51:43;38.50;;;19.05;;
56830;SDS011;42713;42.676;23.352;2023-11-21T09:54:10;34.22;;;18.55;;
56830;SDS011;42713;42.676;23.352;2023-11-21T09:56:39;39.28;;;19.17;;
56830;SDS011;42713;42.676;23.352;2023-11-21T09:59:05;33.08;;;16.30;;
56830;SDS011;42713;42.676;23.352;2023-11-21T10:01:32;32.58;;;16.55;;
56830;SDS011;42713;42.676;23.352;2023-11-21T10:04:04;30.83;;;14.43;;
56830;SDS011;42713;42.676;23.352;2023-11-21T10:06:36;30.27;;;14.48;;
56830;SDS011;42713;42.676;23.352;2023-11-21T10:09:04;30.05;;;13.63;;
56830;SDS011;42713;42.676;23.352;2023-11-21T10:11:42;30.85;;;14.25;;
56830;SDS011;42713;42.676;23.352;2023-11-21T10:14:10;29.33;;;13.20;;
56830;SDS011;42713;42.676;23.352;2023-11-21T10:19:45;27.48;;;12.43;;
56830;SDS011;42713;42.676;23.352;2023-11-21T10:22:27;23.65;;;12.10;;
56830;SDS011;42713;42.676;23.352;2023-11-21T10:24:58;29.52;;;12.18;;
56830;SDS011;42713;42.676;23.352;2023-11-21T10:27:24;24.05;;;11.00;;
56830;SDS011;42713;42.676;23.352;2023-11-21T10:30:11;25.08;;;11.18;;
56830;SDS011;42713;42.676;23.352;2023-11-21T10:32:53;20.98;;;10.77;;
56830;SDS011;42713;42.676;23.352;2023-11-21T10:35:48;21.23;;;9.43;;
56830;SDS011;42713;42.676;23.352;2023-11-21T10:38:24;25.75;;;9.80;;
56830;SDS011;42713;42.676;23.352;2023-11-21T10:43:35;24.83;;;10.83;;
56830;SDS011;42713;42.676;23.352;2023-11-21T10:49:43;23.88;;;10.48;;
56830;SDS011;42713;42.676;23.352;2023-11-21T10:52:09;21.80;;;10.60;;
56830;SDS011;42713;42.676;23.352;2023-11-21T11:05:13;19.58;;;9.07;;
56830;SDS011;42713;42.676;23.352;2023-11-21T11:11:30;18.05;;;7.43;;
56830;SDS011;42713;42.676;23.352;2023-11-21T12:02:33;29.65;;;11.52;;
56830;SDS011;42713;42.676;23.352;2023-11-21T12:05:48;20.90;;;11.57;;
56830;SDS011;42713;42.676;23.352;2023-11-21T12:30:22;38.15;;;18.48;;
56830;SDS011;42713;42.676;23.352;2023-11-21T12:57:41;37.95;;;20.13;;
56830;SDS011;42713;42.676;23.352;2023-11-21T13:03:44;35.70;;;19.50;;
56830;SDS011;42713;42.676;23.352;2023-11-21T13:06:42;41.30;;;20.10;;
56830;SDS011;42713;42.676;23.352;2023-11-21T13:18:31;41.55;;;19.35;;
56830;SDS011;42713;42.676;23.352;2023-11-21T13:21:03;41.65;;;18.90;;
56830;SDS011;42713;42.676;23.352;2023-11-21T13:26:17;43.97;;;19.80;;
56830;SDS011;42713;42.676;23.352;2023-11-21T13:33:27;38.05;;;19.85;;
56830;SDS011;42713;42.676;23.352;2023-11-21T13:36:18;43.00;;;22.23;;
56830;SDS011;42713;42.676;23.352;2023-11-21T13:42:12;37.03;;;20.90;;
56830;SDS011;42713;42.676;23.352;2023-11-21T13:44:57;42.42;;;21.88;;
56830;SDS011;42713;42.676;23.352;2023-11-21T13:47:44;35.72;;;21.60;;
56830;SDS011;42713;42.676;23.352;2023-11-21T13:50:16;43.72;;;20.25;;
56830;SDS011;42713;42.676;23.352;2023-11-21T13:53:15;40.88;;;20.92;;
56830;SDS011;42713;42.676;23.352;2023-11-21T13:56:22;40.85;;;22.13;;
56830;SDS011;42713;42.676;23.352;2023-11-21T13:59:18;42.08;;;21.42;;
56830;SDS011;42713;42.676;23.352;2023-11-21T14:01:54;38.63;;;21.05;;
56830;SDS011;42713;42.676;23.352;2023-11-21T14:04:47;43.72;;;20.70;;
56830;SDS011;42713;42.676;23.352;2023-11-21T14:07:25;35.80;;;19.85;;
56830;SDS011;42713;42.676;23.352;2023-11-21T14:12:23;42.03;;;21.17;;
56830;SDS011;42713;42.676;23.352;2023-11-21T14:14:49;37.38;;;21.00;;
56830;SDS011;42713;42.676;23.352;2023-11-21T14:17:18;37.97;;;20.30;;
56830;SDS011;42713;42.676;23.352;2023-11-21T14:33:43;33.45;;;20.25;;
56830;SDS011;42713;42.676;23.352;2023-11-21T14:44:12;42.47;;;21.17;;
56830;SDS011;42713;42.676;23.352;2023-11-21T14:58:02;39.38;;;22.58;;
56830;SDS011;42713;42.676;23.352;2023-11-21T15:07:20;42.55;;;22.20;;
56830;SDS011;42713;42.676;23.352;2023-11-21T15:09:46;43.30;;;21.73;;
56830;SDS011;42713;42.676;23.352;2023-11-21T15:12:12;42.92;;;22.02;;
56830;SDS011;42713;42.676;23.352;2023-11-21T15:14:45;42.70;;;21.85;;
56830;SDS011;42713;42.676;23.352;2023-11-21T15:17:13;36.65;;;21.33;;
56830;SDS011;42713;42.676;23.352;2023-11-21T15:19:55;43.42;;;21.38;;
56830;SDS011;42713;42.676;23.352;2023-11-21T15:22:20;56.15;;;22.42;;
56830;SDS011;42713;42.676;23.352;2023-11-21T15:24:47;41.85;;;22.65;;
56830;SDS011;42713;42.676;23.352;2023-11-21T15:34:17;43.38;;;21.90;;
56830;SDS011;42713;42.676;23.352;2023-11-21T15:58:48;69.38;;;29.13;;
56830;SDS011;42713;42.676;23.352;2023-11-21T16:01:31;71.20;;;35.45;;
56830;SDS011;42713;42.676;23.352;2023-11-21T16:04:24;66.75;;;34.58;;
56830;SDS011;42713;42.676;23.352;2023-11-21T16:06:58;72.13;;;33.53;;
56830;SDS011;42713;42.676;23.352;2023-11-21T16:09:32;62.92;;;31.77;;
56830;SDS011;42713;42.676;23.352;2023-11-21T16:12:26;54.40;;;28.08;;
56830;SDS011;42713;42.676;23.352;2023-11-21T16:23:08;63.38;;;31.25;;
56830;SDS011;42713;42.676;23.352;2023-11-21T16:25:40;50.55;;;28.48;;
56830;SDS011;42713;42.676;23.352;2023-11-21T16:43:40;49.15;;;25.65;;
56830;SDS011;42713;42.676;23.352;2023-11-21T16:51:59;61.45;;;28.50;;
56830;SDS011;42713;42.676;23.352;2023-11-21T16:54:26;55.33;;;27.92;;
56830;SDS011;42713;42.676;23.352;2023-11-21T16:57:00;47.13;;;26.67;;
56830;SDS011;42713;42.676;23.352;2023-11-21T16:59:27;59.90;;;28.73;;
56830;SDS011;42713;42.676;23.352;2023-11-21T17:01:55;51.05;;;26.38;;
56830;SDS011;42713;42.676;23.352;2023-11-21T17:04:20;53.83;;;27.02;;
56830;SDS011;42713;42.676;23.352;2023-11-21T17:06:47;52.72;;;24.80;;
56830;SDS011;42713;42.676;23.352;2023-11-21T17:09:13;48.78;;;26.42;;
56830;SDS011;42713;42.676;23.352;2023-11-21T17:11:43;58.80;;;27.50;;
56830;SDS011;42713;42.676;23.352;2023-11-21T17:14:11;58.25;;;28.67;;
56830;SDS011;42713;42.676;23.352;2023-11-21T17:16:37;53.75;;;27.90;;
56830;SDS011;42713;42.676;23.352;2023-11-21T17:19:05;70.13;;;29.42;;
56830;SDS011;42713;42.676;23.352;2023-11-21T17:21:31;51.47;;;26.65;;
56830;SDS011;42713;42.676;23.352;2023-11-21T17:23:57;57.85;;;26.75;;
56830;SDS011;42713;42.676;23.352;2023-11-21T17:26:23;56.88;;;27.50;;
56830;SDS011;42713;42.676;23.352;2023-11-21T17:28:48;54.95;;;27.45;;
56830;SDS011;42713;42.676;23.352;2023-11-21T17:31:36;47.63;;;25.20;;
56830;SDS011;42713;42.676;23.352;2023-11-21T17:34:01;46.95;;;26.23;;
56830;SDS011;42713;42.676;23.352;2023-11-21T17:36:27;47.50;;;22.92;;
56830;SDS011;42713;42.676;23.352;2023-11-21T17:38:53;36.50;;;20.48;;
56830;SDS011;42713;42.676;23.352;2023-11-21T17:41:22;56.60;;;26.17;;
56830;SDS011;42713;42.676;23.352;2023-11-21T17:43:48;40.35;;;21.48;;
56830;SDS011;42713;42.676;23.352;2023-11-21T17:46:23;42.30;;;22.48;;
56830;SDS011;42713;42.676;23.352;2023-11-21T17:48:48;43.90;;;24.90;;
56830;SDS011;42713;42.676;23.352;2023-11-21T17:51:16;45.78;;;21.05;;
56830;SDS011;42713;42.676;23.352;2023-11-21T17:53:42;83.93;;;28.45;;
56830;SDS011;42713;42.676;23.352;2023-11-21T17:56:11;43.05;;;22.70;;
56830;SDS011;42713;42.676;23.352;2023-11-21T17:58:44;48.47;;;23.45;;
56830;SDS011;42713;42.676;23.352;2023-11-21T18:01:13;39.92;;;20.65;;
56830;SDS011;42713;42.676;23.352;2023-11-21T18:03:38;32.90;;;18.45;;
56830;SDS011;42713;42.676;23.352;2023-11-21T18:06:04;34.13;;;19.38;;
56830;SDS011;42713;42.676;23.352;2023-11-21T18:08:30;40.17;;;19.35;;
56830;SDS011;42713;42.676;23.352;2023-11-21T18:10:56;36.55;;;18.98;;
56830;SDS011;42713;42.676;23.352;2023-11-21T18:13:25;47.83;;;21.48;;
56830;SDS011;42713;42.676;23.352;2023-11-21T18:16:09;46.80;;;24.25;;
56830;SDS011;42713;42.676;23.352;2023-11-21T18:18:35;59.50;;;24.52;;
56830;SDS011;42713;42.676;23.352;2023-11-21T18:21:01;45.10;;;22.30;;
56830;SDS011;42713;42.676;23.352;2023-11-21T18:23:32;58.65;;;28.02;;
56830;SDS011;42713;42.676;23.352;2023-11-21T18:34:33;41.30;;;22.80;;
56830;SDS011;42713;42.676;23.352;2023-11-21T18:40:45;42.92;;;22.73;;
56830;SDS011;42713;42.676;23.352;2023-11-21T18:46:03;45.10;;;21.77;;
56830;SDS011;42713;42.676;23.352;2023-11-21T18:56:32;52.72;;;26.98;;
56830;SDS011;42713;42.676;23.352;2023-11-21T18:59:24;55.40;;;26.58;;
56830;SDS011;42713;42.676;23.352;2023-11-21T19:32:05;61.80;;;25.85;;
56830;SDS011;42713;42.676;23.352;2023-11-21T19:37:07;62.00;;;27.48;;
56830;SDS011;42713;42.676;23.352;2023-11-21T19:39:36;55.95;;;27.60;;
56830;SDS011;42713;42.676;23.352;2023-11-21T19:42:13;51.95;;;24.52;;
56830;SDS011;42713;42.676;23.352;2023-11-21T19:44:51;56.28;;;28.40;;
56830;SDS011;42713;42.676;23.352;2023-11-21T19:47:26;47.40;;;27.25;;
56830;SDS011;42713;42.676;23.352;2023-11-21T19:49:57;55.67;;;27.00;;
56830;SDS011;42713;42.676;23.352;2023-11-21T19:52:22;51.70;;;24.73;;
56830;SDS011;42713;42.676;23.352;2023-11-21T19:54:50;65.03;;;28.52;;
56830;SDS011;42713;42.676;23.352;2023-11-21T19:57:21;73.75;;;33.22;;
56830;SDS011;42713;42.676;23.352;2023-11-21T19:59:53;57.97;;;31.65;;
56830;SDS011;42713;42.676;23.352;2023-11-21T20:02:21;63.45;;;33.63;;
56830;SDS011;42713;42.676;23.352;2023-11-21T20:04:59;58.03;;;31.65;;
56830;SDS011;42713;42.676;23.352;2023-11-21T20:07:37;55.83;;;29.35;;
56830;SDS011;42713;42.676;23.352;2023-11-21T20:10:03;66.45;;;33.05;;
56830;SDS011;42713;42.676;23.352;2023-11-21T20:21:43;70.23;;;36.43;;
56830;SDS011;42713;42.676;23.352;2023-11-21T20:32:16;67.13;;;34.08;;
56830;SDS011;42713;42.676;23.352;2023-11-21T20:49:19;65.50;;;35.15;;
56830;SDS011;42713;42.676;23.352;2023-11-21T21:00:07;71.45;;;34.35;;
56830;SDS011;42713;42.676;23.352;2023-11-21T21:11:10;64.80;;;34.05;;
56830;SDS011;42713;42.676;23.352;2023-11-21T21:44:05;63.88;;;31.75;;
56830;SDS011;42713;42.676;23.352;2023-11-21T22:02:37;72.38;;;33.85;;
56830;SDS011;42713;42.676;23.352;2023-11-21T22:23:56;55.53;;;29.73;;
56830;SDS011;42713;42.676;23.352;2023-11-21T22:26:54;62.47;;;31.27;;
56830;SDS011;42713;42.676;23.352;2023-11-21T22:37:58;55.35;;;28.55;;